Missoula, MT (59801)

4:52 AM MST on December 08, 2016 (GMT -0700)
Franklin to the Fort | | Change Station

Elev 3200 ft 46.86 °N, 114.02 °W | Updated 7 seconds ago

Partly Cloudy
Partly Cloudy
8.0 °F
Feels Like 8 °F
N
1.0
Wind Variable Wind from ESE
Gusts 3.0 mph

Today
High -- | Low -- °F
--% Chance of Precip.
Yesterday
High -- | Low -- °F
Precip. -- in
Pressure 30.61 in
Visibility 10.0 miles
Clouds Scattered Clouds 3100 ft
Windchill 8 °F
Dew Point 4 °F
Humidity 80%
Rainfall 0.00 in
Snow Depth Not available.
8:08 AM 4:47 PM
Waxing Gibbous, 62% visible
METAR KMSO 081053Z 09008KT 10SM SCT031 M13/M17 A3042 RMK AO2 SLP363 T11331172
Pressure 30.61 in
Visibility 10.0 miles
Clouds Scattered Clouds 3100 ft
Windchill 8 °F
Dew Point 4 °F
Humidity 80%
Rainfall 0.00 in
Snow Depth Not available.
8:08 AM 4:47 PM
Waxing Gibbous, 62% visible
METAR KMSO 081053Z 09008KT 10SM SCT031 M13/M17 A3042 RMK AO2 SLP363 T11331172

10-Day Weather Forecast

Almanac

Astronomy

Dec. 08, 2016 Rise Set
Actual Time
Civil Twilight
Nautical Twilight
Astronomical Twilight
Moon
Length of Visible Light
Length of Day
Tomorrow will be .
, % of the Moon is Illuminated

Today's Extremes

State Highs State Lows

Community

WunderPhotos

Upload Photos

1,956,261 photos uploaded!

WunderBlog® & News

Nearby

Air Quality

  Air Quality AQ Index Pollutant
Not available.

Snow Depth

Station Depth Elevation

Earthquake Activity

City Distance Mag. Time & Date
Minimum magnitude displayed is 2.5.

Coastal Water Temperatures

Place Temperature

Stations

Nearby Weather Stations

Station Location Temp. Windchill Dew Point Humidity Wind Precip. Elev Updated Type
                   

Watches & Warnings

There are currently no watches in effect.